KSDF/SDF METAR and TAF weather

Enter ICAO airport designator
Station Type Date Time Source
KSDF METAR 2022/01/26 07:56 UTC NOAA

KSDF 260756Z 01006KT 10SM CLR M08/M16 A3042 RMK AO2 SLP309 T10781156 $


Station Type Date Time Source
KSDF Decoded METAR 2022/01/26 07:56 UTC NOAA

STANDIFORD FIELD, KY, United States (KSDF) 38-11N 085-44W 146M
Jan 26, 2022 - 02:56 AM EST / 2022.01.26 0756 UTC
Wind: from the N (010 degrees) at 7 MPH (6 KT):0
Visibility: 10 mile(s):0
Sky conditions: clear
Temperature: 18.0 F (-7.8 C)
Windchill: 8 F (-13 C):1
Dew Point: 3.9 F (-15.6 C)
Relative Humidity: 53%
Pressure (altimeter): 30.42 in. Hg (1030 hPa)
ob: KSDF 260756Z 01006KT 10SM CLR M08/M16 A3042 RMK AO2 SLP309 T10781156
cycle: 8

Station Type Date Time Source
KSDF TAF 2022/01/26 06:30 UTC NOAA

TAF KSDF 260527Z 2606/2712 35007KT P6SM FEW250

Example: see airport list